sensor_id;sensor_type;location;lat;lon;timestamp;pressure;altitude;pressure_sealevel;temperature;humidity
65131;BME280;51709;54.912;8.316;2023-04-04T00:02:29;103162.50;;;2.41;41.79
65131;BME280;51709;54.912;8.316;2023-04-04T00:07:50;103156.69;;;2.43;41.76
65131;BME280;51709;54.912;8.316;2023-04-04T00:13:10;103164.31;;;2.43;41.96
65131;BME280;51709;54.912;8.316;2023-04-04T00:18:31;103165.19;;;2.44;42.03
65131;BME280;51709;54.912;8.316;2023-04-04T00:23:53;103154.09;;;2.42;42.12
65131;BME280;51709;54.912;8.316;2023-04-04T00:29:13;103156.63;;;2.42;42.15
65131;BME280;51709;54.912;8.316;2023-04-04T00:34:33;103150.44;;;2.37;42.55
65131;BME280;51709;54.912;8.316;2023-04-04T00:39:56;103147.28;;;2.41;42.60
65131;BME280;51709;54.912;8.316;2023-04-04T00:45:17;103138.31;;;2.47;42.56
65131;BME280;51709;54.912;8.316;2023-04-04T00:50:38;103128.97;;;2.46;42.67
65131;BME280;51709;54.912;8.316;2023-04-04T00:55:59;103117.16;;;2.29;43.14
65131;BME280;51709;54.912;8.316;2023-04-04T01:01:20;103113.91;;;2.15;43.62
65131;BME280;51709;54.912;8.316;2023-04-04T01:06:41;103107.75;;;2.10;43.80
65131;BME280;51709;54.912;8.316;2023-04-04T01:12:02;103101.16;;;2.13;43.56
65131;BME280;51709;54.912;8.316;2023-04-04T01:17:25;103094.59;;;2.17;43.54
65131;BME280;51709;54.912;8.316;2023-04-04T01:22:48;103095.22;;;2.13;43.78
65131;BME280;51709;54.912;8.316;2023-04-04T01:28:10;103095.59;;;2.21;43.68
65131;BME280;51709;54.912;8.316;2023-04-04T01:33:37;103093.41;;;2.27;43.74
65131;BME280;51709;54.912;8.316;2023-04-04T01:39:04;103088.16;;;2.40;43.44
65131;BME280;51709;54.912;8.316;2023-04-04T01:44:31;103100.25;;;2.46;43.47
65131;BME280;51709;54.912;8.316;2023-04-04T01:49:53;103090.91;;;2.45;43.51
65131;BME280;51709;54.912;8.316;2023-04-04T01:55:15;103083.13;;;2.42;43.54
65131;BME280;51709;54.912;8.316;2023-04-04T02:00:36;103089.72;;;2.38;43.69
65131;BME280;51709;54.912;8.316;2023-04-04T02:05:57;103081.00;;;2.33;43.89
65131;BME280;51709;54.912;8.316;2023-04-04T02:11:27;103080.16;;;2.33;44.02
65131;BME280;51709;54.912;8.316;2023-04-04T02:16:48;103077.06;;;2.38;44.01
65131;BME280;51709;54.912;8.316;2023-04-04T02:22:09;103065.34;;;2.40;44.20
65131;BME280;51709;54.912;8.316;2023-04-04T02:27:29;103066.78;;;2.53;44.13
65131;BME280;51709;54.912;8.316;2023-04-04T02:32:50;103058.25;;;2.69;44.02
65131;BME280;51709;54.912;8.316;2023-04-04T02:38:13;103063.25;;;2.86;43.85
65131;BME280;51709;54.912;8.316;2023-04-04T02:43:37;103065.56;;;2.99;43.71
65131;BME280;51709;54.912;8.316;2023-04-04T02:49:00;103052.38;;;3.06;43.69
65131;BME280;51709;54.912;8.316;2023-04-04T02:54:22;103051.38;;;3.03;43.97
65131;BME280;51709;54.912;8.316;2023-04-04T02:59:43;103052.16;;;3.02;44.04
65131;BME280;51709;54.912;8.316;2023-04-04T03:05:04;103055.25;;;3.14;44.07
65131;BME280;51709;54.912;8.316;2023-04-04T03:10:27;103057.84;;;3.16;43.98
65131;BME280;51709;54.912;8.316;2023-04-04T03:15:58;103053.72;;;3.18;44.19
65131;BME280;51709;54.912;8.316;2023-04-04T03:21:20;103054.66;;;3.20;44.18
65131;BME280;51709;54.912;8.316;2023-04-04T03:26:40;103061.34;;;3.18;44.25
65131;BME280;51709;54.912;8.316;2023-04-04T03:32:03;103057.84;;;3.16;44.24
65131;BME280;51709;54.912;8.316;2023-04-04T03:37:24;103060.53;;;3.19;44.23
65131;BME280;51709;54.912;8.316;2023-04-04T03:42:45;103062.44;;;3.23;44.38
65131;BME280;51709;54.912;8.316;2023-04-04T03:48:11;103068.50;;;3.27;44.28
65131;BME280;51709;54.912;8.316;2023-04-04T03:53:32;103075.38;;;3.29;44.33
65131;BME280;51709;54.912;8.316;2023-04-04T03:58:55;103066.81;;;3.27;44.38
65131;BME280;51709;54.912;8.316;2023-04-04T04:04:16;103080.47;;;3.29;44.55
65131;BME280;51709;54.912;8.316;2023-04-04T04:09:36;103075.22;;;3.26;44.78
65131;BME280;51709;54.912;8.316;2023-04-04T04:14:59;103068.34;;;3.23;44.69
65131;BME280;51709;54.912;8.316;2023-04-04T04:20:23;103062.88;;;3.14;44.84
65131;BME280;51709;54.912;8.316;2023-04-04T04:25:46;103058.38;;;3.08;44.92
65131;BME280;51709;54.912;8.316;2023-04-04T04:31:10;103051.16;;;2.98;45.18
65131;BME280;51709;54.912;8.316;2023-04-04T04:36:38;103061.59;;;2.86;45.27
65131;BME280;51709;54.912;8.316;2023-04-04T04:42:18;103055.44;;;2.63;45.64
65131;BME280;51709;54.912;8.316;2023-04-04T04:47:45;103062.22;;;2.46;45.73
65131;BME280;51709;54.912;8.316;2023-04-04T04:53:09;103057.34;;;2.33;46.04
65131;BME280;51709;54.912;8.316;2023-04-04T04:58:31;103054.44;;;2.25;46.19
65131;BME280;51709;54.912;8.316;2023-04-04T05:03:54;103049.63;;;2.13;46.12
65131;BME280;51709;54.912;8.316;2023-04-04T05:09:22;103040.78;;;2.05;46.33
65131;BME280;51709;54.912;8.316;2023-04-04T05:14:43;103051.06;;;1.91;46.68
65131;BME280;51709;54.912;8.316;2023-04-04T05:20:05;103045.22;;;1.92;46.56
65131;BME280;51709;54.912;8.316;2023-04-04T05:25:28;103044.44;;;1.93;46.41
65131;BME280;51709;54.912;8.316;2023-04-04T05:30:49;103040.31;;;1.95;46.27
65131;BME280;51709;54.912;8.316;2023-04-04T05:36:14;103036.13;;;1.96;46.33
65131;BME280;51709;54.912;8.316;2023-04-04T05:41:49;103044.59;;;1.96;46.32
65131;BME280;51709;54.912;8.316;2023-04-04T05:47:13;103039.59;;;1.98;46.45
65131;BME280;51709;54.912;8.316;2023-04-04T05:52:37;103038.09;;;2.02;46.56
65131;BME280;51709;54.912;8.316;2023-04-04T05:58:03;103032.56;;;2.09;46.26
65131;BME280;51709;54.912;8.316;2023-04-04T06:03:36;103031.31;;;2.19;46.31
65131;BME280;51709;54.912;8.316;2023-04-04T06:09:02;103034.31;;;2.28;46.19
65131;BME280;51709;54.912;8.316;2023-04-04T06:14:22;103035.06;;;2.43;46.22
65131;BME280;51709;54.912;8.316;2023-04-04T06:19:44;103036.66;;;2.59;46.07
65131;BME280;51709;54.912;8.316;2023-04-04T06:25:05;103029.84;;;2.76;46.02
65131;BME280;51709;54.912;8.316;2023-04-04T06:30:27;103029.03;;;2.96;45.75
65131;BME280;51709;54.912;8.316;2023-04-04T06:35:48;103030.69;;;3.13;46.07
65131;BME280;51709;54.912;8.316;2023-04-04T06:41:10;103029.09;;;3.35;45.87
65131;BME280;51709;54.912;8.316;2023-04-04T06:46:30;103019.16;;;3.59;45.79
65131;BME280;51709;54.912;8.316;2023-04-04T06:51:52;103025.16;;;3.81;45.77
65131;BME280;51709;54.912;8.316;2023-04-04T06:57:13;103026.13;;;4.04;45.66
65131;BME280;51709;54.912;8.316;2023-04-04T07:02:34;103028.56;;;4.22;45.61
65131;BME280;51709;54.912;8.316;2023-04-04T07:07:55;103028.59;;;4.45;45.58
65131;BME280;51709;54.912;8.316;2023-04-04T07:13:16;103019.03;;;4.82;44.88
65131;BME280;51709;54.912;8.316;2023-04-04T07:18:36;103021.44;;;5.01;44.84
65131;BME280;51709;54.912;8.316;2023-04-04T07:23:57;103016.06;;;5.16;44.67
65131;BME280;51709;54.912;8.316;2023-04-04T07:29:19;103008.44;;;5.40;44.12
65131;BME280;51709;54.912;8.316;2023-04-04T07:34:41;103000.31;;;5.77;43.56
65131;BME280;51709;54.912;8.316;2023-04-04T07:40:02;103007.44;;;6.37;42.47
65131;BME280;51709;54.912;8.316;2023-04-04T07:45:25;102997.88;;;6.59;42.15
65131;BME280;51709;54.912;8.316;2023-04-04T07:50:46;102996.25;;;6.90;41.79
65131;BME280;51709;54.912;8.316;2023-04-04T07:56:06;102997.13;;;6.90;41.98
65131;BME280;51709;54.912;8.316;2023-04-04T08:01:27;102995.88;;;6.77;42.17
65131;BME280;51709;54.912;8.316;2023-04-04T08:06:48;102981.34;;;6.46;42.94
65131;BME280;51709;54.912;8.316;2023-04-04T08:12:08;102994.00;;;6.43;42.82
65131;BME280;51709;54.912;8.316;2023-04-04T08:17:29;102991.28;;;6.66;42.22
65131;BME280;51709;54.912;8.316;2023-04-04T08:22:51;102985.16;;;6.88;41.77
65131;BME280;51709;54.912;8.316;2023-04-04T08:28:12;102981.28;;;7.33;40.96
65131;BME280;51709;54.912;8.316;2023-04-04T08:33:33;102972.66;;;7.29;40.92
65131;BME280;51709;54.912;8.316;2023-04-04T08:39:06;102974.28;;;7.25;41.20
65131;BME280;51709;54.912;8.316;2023-04-04T08:44:28;102973.50;;;6.98;41.79
65131;BME280;51709;54.912;8.316;2023-04-04T08:49:50;102973.38;;;7.23;41.59
65131;BME280;51709;54.912;8.316;2023-04-04T08:55:12;102967.94;;;8.13;39.96
65131;BME280;51709;54.912;8.316;2023-04-04T09:00:33;102964.72;;;8.59;39.41
65131;BME280;51709;54.912;8.316;2023-04-04T09:05:54;102959.84;;;9.11;38.76
65131;BME280;51709;54.912;8.316;2023-04-04T09:11:18;102968.09;;;9.40;38.45
65131;BME280;51709;54.912;8.316;2023-04-04T09:16:39;102962.81;;;9.33;38.73
65131;BME280;51709;54.912;8.316;2023-04-04T09:22:00;102965.50;;;8.96;39.63
65131;BME280;51709;54.912;8.316;2023-04-04T09:27:21;102966.88;;;9.21;39.10
65131;BME280;51709;54.912;8.316;2023-04-04T09:32:43;102960.16;;;9.76;38.28
65131;BME280;51709;54.912;8.316;2023-04-04T09:38:05;102959.97;;;10.20;37.55
65131;BME280;51709;54.912;8.316;2023-04-04T09:43:26;102964.56;;;10.41;37.17
65131;BME280;51709;54.912;8.316;2023-04-04T09:48:50;102961.94;;;11.03;36.54
65131;BME280;51709;54.912;8.316;2023-04-04T09:54:10;102970.53;;;11.08;36.67
65131;BME280;51709;54.912;8.316;2023-04-04T09:59:45;102960.94;;;10.28;37.98
65131;BME280;51709;54.912;8.316;2023-04-04T10:05:10;102968.50;;;10.79;37.06
65131;BME280;51709;54.912;8.316;2023-04-04T10:10:32;102971.13;;;11.67;35.46
65131;BME280;51709;54.912;8.316;2023-04-04T10:15:58;102965.22;;;11.82;35.37
65131;BME280;51709;54.912;8.316;2023-04-04T10:21:20;102961.16;;;12.04;35.15
65131;BME280;51709;54.912;8.316;2023-04-04T10:26:40;102962.28;;;12.46;34.46
65131;BME280;51709;54.912;8.316;2023-04-04T10:32:04;102951.28;;;12.94;33.76
65131;BME280;51709;54.912;8.316;2023-04-04T10:37:26;102955.66;;;13.10;33.71
65131;BME280;51709;54.912;8.316;2023-04-04T10:42:49;102956.63;;;13.40;33.53
65131;BME280;51709;54.912;8.316;2023-04-04T10:48:10;102953.06;;;13.15;33.87
65131;BME280;51709;54.912;8.316;2023-04-04T10:53:31;102943.69;;;13.47;33.33
65131;BME280;51709;54.912;8.316;2023-04-04T10:59:08;102942.47;;;12.36;35.01
65131;BME280;51709;54.912;8.316;2023-04-04T11:04:30;102949.44;;;12.56;34.65
65131;BME280;51709;54.912;8.316;2023-04-04T11:10:12;102950.34;;;12.69;34.35
65131;BME280;51709;54.912;8.316;2023-04-04T11:16:06;102940.97;;;12.94;33.82
65131;BME280;51709;54.912;8.316;2023-04-04T11:21:33;102941.56;;;12.28;34.72
65131;BME280;51709;54.912;8.316;2023-04-04T11:26:53;102947.22;;;11.82;35.32
65131;BME280;51709;54.912;8.316;2023-04-04T11:32:40;102934.31;;;11.72;35.29
65131;BME280;51709;54.912;8.316;2023-04-04T11:38:16;102927.94;;;11.32;35.78
65131;BME280;51709;54.912;8.316;2023-04-04T11:43:43;102933.97;;;11.35;35.50
65131;BME280;51709;54.912;8.316;2023-04-04T11:49:05;102917.47;;;12.13;34.20
65131;BME280;51709;54.912;8.316;2023-04-04T11:54:25;102928.97;;;12.85;32.93
65131;BME280;51709;54.912;8.316;2023-04-04T11:59:48;102917.06;;;13.46;32.10
65131;BME280;51709;54.912;8.316;2023-04-04T12:05:10;102916.84;;;12.58;33.41
65131;BME280;51709;54.912;8.316;2023-04-04T12:10:33;102916.09;;;12.99;33.08
65131;BME280;51709;54.912;8.316;2023-04-04T12:15:54;102916.19;;;13.50;32.31
65131;BME280;51709;54.912;8.316;2023-04-04T12:21:15;102902.38;;;13.93;31.79
65131;BME280;51709;54.912;8.316;2023-04-04T12:26:41;102903.00;;;14.74;30.93
65131;BME280;51709;54.912;8.316;2023-04-04T12:32:03;102896.28;;;14.27;31.70
65131;BME280;51709;54.912;8.316;2023-04-04T12:37:27;102884.03;;;14.80;30.96
65131;BME280;51709;54.912;8.316;2023-04-04T12:42:48;102881.03;;;15.36;30.19
65131;BME280;51709;54.912;8.316;2023-04-04T12:48:12;102865.97;;;15.80;29.85
65131;BME280;51709;54.912;8.316;2023-04-04T12:53:33;102879.19;;;16.97;28.38
65131;BME280;51709;54.912;8.316;2023-04-04T12:59:01;102857.06;;;16.73;28.85
65131;BME280;51709;54.912;8.316;2023-04-04T13:04:22;102869.84;;;16.84;28.86
65131;BME280;51709;54.912;8.316;2023-04-04T13:09:56;102849.72;;;16.40;29.38
65131;BME280;51709;54.912;8.316;2023-04-04T13:15:17;102850.16;;;16.06;30.18
65131;BME280;51709;54.912;8.316;2023-04-04T13:20:39;102849.75;;;17.01;28.90
65131;BME280;51709;54.912;8.316;2023-04-04T13:26:00;102842.84;;;17.99;27.68
65131;BME280;51709;54.912;8.316;2023-04-04T13:31:21;102840.25;;;17.96;28.02
65131;BME280;51709;54.912;8.316;2023-04-04T13:36:42;102840.50;;;18.27;27.78
65131;BME280;51709;54.912;8.316;2023-04-04T13:42:03;102826.38;;;17.04;29.60
65131;BME280;51709;54.912;8.316;2023-04-04T13:47:24;102823.00;;;17.93;28.45
65131;BME280;51709;54.912;8.316;2023-04-04T13:52:46;102813.16;;;17.65;28.87
65131;BME280;51709;54.912;8.316;2023-04-04T13:58:07;102807.66;;;17.81;28.85
65131;BME280;51709;54.912;8.316;2023-04-04T14:03:29;102802.47;;;18.23;28.29
65131;BME280;51709;54.912;8.316;2023-04-04T14:08:50;102799.06;;;17.32;29.77
65131;BME280;51709;54.912;8.316;2023-04-04T14:14:10;102800.31;;;16.53;30.95
65131;BME280;51709;54.912;8.316;2023-04-04T14:19:31;102802.09;;;17.05;30.17
65131;BME280;51709;54.912;8.316;2023-04-04T14:24:52;102790.72;;;17.14;30.09
65131;BME280;51709;54.912;8.316;2023-04-04T14:30:12;102782.97;;;16.58;30.90
65131;BME280;51709;54.912;8.316;2023-04-04T14:35:33;102776.66;;;15.38;32.53
65131;BME280;51709;54.912;8.316;2023-04-04T14:40:55;102772.56;;;13.62;35.22
65131;BME280;51709;54.912;8.316;2023-04-04T14:46:16;102775.13;;;12.38;37.17
65131;BME280;51709;54.912;8.316;2023-04-04T14:51:39;102775.84;;;11.99;37.36
65131;BME280;51709;54.912;8.316;2023-04-04T14:57:01;102765.22;;;11.40;38.13
65131;BME280;51709;54.912;8.316;2023-04-04T15:02:22;102769.28;;;11.10;38.54
65131;BME280;51709;54.912;8.316;2023-04-04T15:07:46;102754.75;;;11.16;38.32
65131;BME280;51709;54.912;8.316;2023-04-04T15:13:07;102746.97;;;11.06;38.37
65131;BME280;51709;54.912;8.316;2023-04-04T15:18:27;102749.09;;;11.66;37.04
65131;BME280;51709;54.912;8.316;2023-04-04T15:23:47;102752.69;;;12.01;36.31
65131;BME280;51709;54.912;8.316;2023-04-04T15:29:08;102752.88;;;12.88;34.91
65131;BME280;51709;54.912;8.316;2023-04-04T15:34:28;102736.19;;;14.19;32.86
65131;BME280;51709;54.912;8.316;2023-04-04T15:39:49;102735.66;;;14.98;31.97
65131;BME280;51709;54.912;8.316;2023-04-04T15:45:14;102740.84;;;14.95;32.02
65131;BME280;51709;54.912;8.316;2023-04-04T15:50:35;102730.91;;;14.39;33.20
65131;BME280;51709;54.912;8.316;2023-04-04T15:55:56;102728.75;;;13.49;34.64
65131;BME280;51709;54.912;8.316;2023-04-04T16:01:17;102727.97;;;12.81;35.75
65131;BME280;51709;54.912;8.316;2023-04-04T16:06:37;102727.06;;;12.32;36.36
65131;BME280;51709;54.912;8.316;2023-04-04T16:11:58;102720.97;;;12.10;36.66
65131;BME280;51709;54.912;8.316;2023-04-04T16:17:19;102726.78;;;11.67;37.22
65131;BME280;51709;54.912;8.316;2023-04-04T16:22:39;102733.44;;;11.31;37.65
65131;BME280;51709;54.912;8.316;2023-04-04T16:28:01;102729.97;;;11.22;37.89
65131;BME280;51709;54.912;8.316;2023-04-04T16:33:21;102714.47;;;11.13;38.17
65131;BME280;51709;54.912;8.316;2023-04-04T16:38:43;102715.19;;;10.92;38.61
65131;BME280;51709;54.912;8.316;2023-04-04T16:44:04;102707.25;;;10.66;38.99
65131;BME280;51709;54.912;8.316;2023-04-04T16:49:24;102714.78;;;10.47;39.31
65131;BME280;51709;54.912;8.316;2023-04-04T16:54:45;102705.91;;;10.15;39.81
65131;BME280;51709;54.912;8.316;2023-04-04T17:00:05;102699.94;;;10.20;39.55
65131;BME280;51709;54.912;8.316;2023-04-04T17:05:29;102700.84;;;10.25;39.52
65131;BME280;51709;54.912;8.316;2023-04-04T17:10:50;102705.94;;;10.20;39.61
65131;BME280;51709;54.912;8.316;2023-04-04T17:16:11;102702.13;;;9.85;40.40
65131;BME280;51709;54.912;8.316;2023-04-04T17:21:32;102703.38;;;9.49;41.06
65131;BME280;51709;54.912;8.316;2023-04-04T17:26:55;102691.66;;;9.07;41.74
65131;BME280;51709;54.912;8.316;2023-04-04T17:32:18;102694.75;;;8.84;42.14
65131;BME280;51709;54.912;8.316;2023-04-04T17:37:38;102679.88;;;8.63;42.36
65131;BME280;51709;54.912;8.316;2023-04-04T17:42:59;102687.84;;;8.32;42.96
65131;BME280;51709;54.912;8.316;2023-04-04T17:48:20;102677.28;;;8.15;43.25
65131;BME280;51709;54.912;8.316;2023-04-04T17:53:41;102682.59;;;7.80;43.91
65131;BME280;51709;54.912;8.316;2023-04-04T17:59:02;102677.00;;;7.57;44.26
65131;BME280;51709;54.912;8.316;2023-04-04T18:04:23;102672.59;;;7.50;44.46
65131;BME280;51709;54.912;8.316;2023-04-04T18:09:44;102667.28;;;7.40;44.64
65131;BME280;51709;54.912;8.316;2023-04-04T18:15:06;102673.91;;;7.32;44.60
65131;BME280;51709;54.912;8.316;2023-04-04T18:20:26;102669.34;;;7.17;44.61
65131;BME280;51709;54.912;8.316;2023-04-04T18:25:54;102662.69;;;6.87;45.34
65131;BME280;51709;54.912;8.316;2023-04-04T18:31:15;102667.97;;;6.95;45.26
65131;BME280;51709;54.912;8.316;2023-04-04T18:36:36;102671.34;;;6.94;45.09
65131;BME280;51709;54.912;8.316;2023-04-04T18:41:57;102670.22;;;6.83;45.43
65131;BME280;51709;54.912;8.316;2023-04-04T18:47:17;102661.41;;;6.70;45.45
65131;BME280;51709;54.912;8.316;2023-04-04T18:52:38;102666.22;;;6.57;45.95
65131;BME280;51709;54.912;8.316;2023-04-04T18:57:58;102681.19;;;6.45;46.27
65131;BME280;51709;54.912;8.316;2023-04-04T19:03:22;102661.25;;;6.30;46.43
65131;BME280;51709;54.912;8.316;2023-04-04T19:08:44;102674.56;;;6.20;46.58
65131;BME280;51709;54.912;8.316;2023-04-04T19:14:05;102670.06;;;6.09;46.70
65131;BME280;51709;54.912;8.316;2023-04-04T19:19:28;102662.94;;;5.99;46.91
65131;BME280;51709;54.912;8.316;2023-04-04T19:24:49;102666.06;;;5.89;47.07
65131;BME280;51709;54.912;8.316;2023-04-04T19:35:58;102663.88;;;5.72;47.49
65131;BME280;51709;54.912;8.316;2023-04-04T19:41:35;102670.41;;;5.62;47.66
65131;BME280;51709;54.912;8.316;2023-04-04T19:46:56;102663.50;;;5.58;47.62
65131;BME280;51709;54.912;8.316;2023-04-04T19:52:21;102673.53;;;5.52;47.58
65131;BME280;51709;54.912;8.316;2023-04-04T19:57:43;102680.19;;;5.48;47.57
65131;BME280;51709;54.912;8.316;2023-04-04T20:03:06;102671.47;;;5.40;47.93
65131;BME280;51709;54.912;8.316;2023-04-04T20:16:03;102662.53;;;5.25;48.00
65131;BME280;51709;54.912;8.316;2023-04-04T20:21:26;102671.72;;;5.20;48.14
65131;BME280;51709;54.912;8.316;2023-04-04T20:26:55;102668.16;;;5.15;48.39
65131;BME280;51709;54.912;8.316;2023-04-04T20:32:19;102666.28;;;5.09;48.37
65131;BME280;51709;54.912;8.316;2023-04-04T20:37:39;102665.19;;;5.01;48.68
65131;BME280;51709;54.912;8.316;2023-04-04T20:43:01;102662.44;;;4.95;48.91
65131;BME280;51709;54.912;8.316;2023-04-04T20:48:32;102664.75;;;4.87;49.26
65131;BME280;51709;54.912;8.316;2023-04-04T20:53:56;102669.66;;;4.83;48.92
65131;BME280;51709;54.912;8.316;2023-04-04T20:59:34;102661.75;;;4.73;49.44
65131;BME280;51709;54.912;8.316;2023-04-04T21:04:55;102666.69;;;4.69;49.26
65131;BME280;51709;54.912;8.316;2023-04-04T21:15:49;102655.25;;;4.56;49.65
65131;BME280;51709;54.912;8.316;2023-04-04T21:21:17;102657.53;;;4.48;49.88
65131;BME280;51709;54.912;8.316;2023-04-04T21:26:39;102646.19;;;4.38;50.02
65131;BME280;51709;54.912;8.316;2023-04-04T21:32:00;102656.06;;;4.30;50.27
65131;BME280;51709;54.912;8.316;2023-04-04T21:37:22;102656.53;;;4.19;50.40
65131;BME280;51709;54.912;8.316;2023-04-04T21:42:45;102647.56;;;4.04;50.62
65131;BME280;51709;54.912;8.316;2023-04-04T21:48:05;102650.47;;;3.91;51.08
65131;BME280;51709;54.912;8.316;2023-04-04T21:53:26;102650.28;;;3.86;50.87
65131;BME280;51709;54.912;8.316;2023-04-04T21:58:47;102644.28;;;3.84;50.94
65131;BME280;51709;54.912;8.316;2023-04-04T22:04:08;102646.66;;;3.79;50.88
65131;BME280;51709;54.912;8.316;2023-04-04T22:09:28;102643.19;;;3.77;50.96
65131;BME280;51709;54.912;8.316;2023-04-04T22:14:50;102637.22;;;3.75;51.01
65131;BME280;51709;54.912;8.316;2023-04-04T22:20:10;102639.66;;;3.72;50.99
65131;BME280;51709;54.912;8.316;2023-04-04T22:25:33;102634.44;;;3.69;51.11
65131;BME280;51709;54.912;8.316;2023-04-04T22:30:53;102628.41;;;3.65;51.19
65131;BME280;51709;54.912;8.316;2023-04-04T22:36:14;102630.78;;;3.61;51.42
65131;BME280;51709;54.912;8.316;2023-04-04T22:41:38;102622.19;;;3.57;51.50
65131;BME280;51709;54.912;8.316;2023-04-04T22:46:58;102609.41;;;3.55;51.50
65131;BME280;51709;54.912;8.316;2023-04-04T22:52:21;102605.06;;;3.51;51.55
65131;BME280;51709;54.912;8.316;2023-04-04T22:57:46;102601.50;;;3.48;51.65
65131;BME280;51709;54.912;8.316;2023-04-04T23:03:07;102597.19;;;3.45;51.84
65131;BME280;51709;54.912;8.316;2023-04-04T23:08:27;102600.50;;;3.43;51.96
65131;BME280;51709;54.912;8.316;2023-04-04T23:13:48;102608.91;;;3.42;51.88
65131;BME280;51709;54.912;8.316;2023-04-04T23:19:09;102600.41;;;3.41;52.10
65131;BME280;51709;54.912;8.316;2023-04-04T23:24:29;102592.75;;;3.39;52.12
65131;BME280;51709;54.912;8.316;2023-04-04T23:29:51;102590.09;;;3.36;52.15
65131;BME280;51709;54.912;8.316;2023-04-04T23:35:16;102585.78;;;3.34;52.21
65131;BME280;51709;54.912;8.316;2023-04-04T23:40:37;102588.19;;;3.31;52.43
65131;BME280;51709;54.912;8.316;2023-04-04T23:45:58;102588.09;;;3.28;52.42
65131;BME280;51709;54.912;8.316;2023-04-04T23:51:19;102585.50;;;3.26;52.64
65131;BME280;51709;54.912;8.316;2023-04-04T23:56:41;102582.91;;;3.24;52.68
